• Join FlightAware (Why Join?)
  • Login
  • US Flag 
01:06AM EDT


 

Airport Tracker/Info


-or-


 

Live Flight TrackerFlight Track Log ✈ CCA4121 ✈ 23-Oct-2013 ✈ ZUJZ / JZH - ZBAA / PEK

Flight Track Log - Related Links

Times and Time Zones

All times are in EDT time to prevent confusion due to time zone crossing. See the CCA4121 flight status page for this flight to view local times or setup timezone preferences in your user account.

Time Position Orientation Groundspeed Altitude Reporting Facility
EDT Latitude Longitude Course Direction KTS MPH feet Rate Location/Type
07:46AM 34.0452 105.5013 51° Northeast  Level Estimated
07:47AM 34.1039 105.5935 52° Northeast  Level Estimated
07:48AM 34.1625 105.6859 52° Northeast  Level Estimated
07:49AM 34.2211 105.7784 53° Northeast  Level Estimated
07:50AM 34.2796 105.8710 53° Northeast  Level Estimated
07:51AM 34.3380 105.9638 53° Northeast  Level Estimated
07:52AM 34.3964 106.0566 53° Northeast  Level Estimated
07:53AM 34.4547 106.1496 53° Northeast  Level Estimated
07:54AM 34.5129 106.2428 53° Northeast  Level Estimated
07:55AM 34.5710 106.3361 53° Northeast  Level Estimated
07:56AM 34.6291 106.4295 53° Northeast  Level Estimated
07:57AM 34.6871 106.5230 53° Northeast  Level Estimated
07:58AM 34.7450 106.6166 53° Northeast  Level Estimated
07:59AM 34.8029 106.7104 53° Northeast  Level Estimated
08:00AM 34.8606 106.8044 53° Northeast  Level Estimated
08:01AM 34.9184 106.8984 53° Northeast  Level Estimated
08:02AM 34.9760 106.9926 53° Northeast  Level Estimated
08:03AM 35.0336 107.0869 53° Northeast  Level Estimated
08:04AM 35.0911 107.1814 53° Northeast  Level Estimated
08:05AM 35.1485 107.2759 53° Northeast  Level Estimated
08:06AM 35.2058 107.3707 53° Northeast  Level Estimated
08:07AM 35.2631 107.4655 53° Northeast  Level Estimated
08:08AM 35.3203 107.5605 54° Northeast  Level Estimated
08:09AM 35.3774 107.6556 54° Northeast  Level Estimated
08:10AM 35.4345 107.7509 54° Northeast  Level Estimated
08:11AM 35.4915 107.8463 54° Northeast  Level Estimated
08:12AM 35.5484 107.9418 54° Northeast  Level Estimated
08:13AM 35.6052 108.0375 54° Northeast  Level Estimated
08:14AM 35.6619 108.1333 54° Northeast  Level Estimated
08:15AM 35.7186 108.2292 54° Northeast  Level Estimated
08:16AM 35.7752 108.3253 54° Northeast  Level Estimated
08:17AM 35.8317 108.4215 54° Northeast  Level Estimated
08:18AM 35.8882 108.5178 54° Northeast  Level Estimated
08:19AM 35.9445 108.6143 54° Northeast  Level Estimated
08:20AM 36.0008 108.7109 54° Northeast  Level Estimated
08:21AM 36.0570 108.8077 54° Northeast  Level Estimated
08:22AM 36.1132 108.9046 54° Northeast  Level Estimated
08:23AM 36.1692 109.0016 54° Northeast  Level Estimated
08:24AM 36.2252 109.0988 54° Northeast  Level Estimated
08:25AM 36.2811 109.1961 55° Northeast  Level Estimated
08:26AM 36.3369 109.2935 55° Northeast  Level Estimated
08:27AM 36.3927 109.3911 55° Northeast  Level Estimated
08:28AM 36.4483 109.4889 55° Northeast  Level Estimated
08:29AM 36.5039 109.5867 55° Northeast  Level Estimated
08:30AM 36.5594 109.6847 55° Northeast  Level Estimated
08:31AM 36.6148 109.7829 55° Northeast  Level Estimated
08:32AM 36.6702 109.8812 55° Northeast  Level Estimated
08:33AM 36.7254 109.9796 55° Northeast  Level Estimated
08:34AM 36.7806 110.0782 55° Northeast  Level Estimated
08:35AM 36.8357 110.1769 55° Northeast  Level Estimated
08:36AM 36.8907 110.2758 55° Northeast  Level Estimated
08:37AM 36.9457 110.3748 55° Northeast  Level Estimated
08:38AM 37.0005 110.4739 55° Northeast  Level Estimated
08:39AM 37.0553 110.5732 55° Northeast  Level Estimated
08:40AM 37.1100 110.6727 55° Northeast  Level Estimated
08:41AM 37.1646 110.7722 55° Northeast  Level Estimated
08:42AM 37.2191 110.8719 56° Northeast  Level Estimated
08:43AM 37.2735 110.9718 56° Northeast  Level Estimated
08:44AM 37.3279 111.0718 56° Northeast  Level Estimated
08:45AM 37.3822 111.1720 56° Northeast  Level Estimated
08:46AM 37.4363 111.2723 56° Northeast  Level Estimated
08:47AM 37.4904 111.3727 56° Northeast  Level Estimated
08:48AM 37.5444 111.4733 56° Northeast  Level Estimated
08:49AM 37.5984 111.5740 56° Northeast  Level Estimated
08:50AM 37.6522 111.6749 56° Northeast  Level Estimated
08:51AM 37.7060 111.7759 56° Northeast  Level Estimated
08:52AM 37.7597 111.8771 56° Northeast  Level Estimated
08:53AM 37.8132 111.9784 56° Northeast  Level Estimated
08:54AM 37.8667 112.0799 56° Northeast  Level Estimated
08:55AM 37.9201 112.1815 56° Northeast  Level Estimated
08:56AM 37.9735 112.2833 56° Northeast  Level Estimated
08:57AM 38.0267 112.3852 56° Northeast  Level Estimated
08:58AM 38.0798 112.4872 56° Northeast  Level Estimated
08:59AM 38.1329 112.5894 57° Northeast  Level Estimated
09:00AM 38.1859 112.6918 57° Northeast  Level Estimated
09:01AM 38.2388 112.7943 57° Northeast  Level Estimated
09:01AM 38.2350 114.5940 57° Northeast 485 558 26,300  Level FlightAware
09:01AM 38.2650 114.6640 61° Northeast 483 556 25,800 -1,020 Descending FlightAware
09:02AM 38.3070 114.7530 59° Northeast 481 554 25,200 -600 Descending FlightAware
09:02AM 38.3460 114.8310 57° Northeast 478 550 25,100 -540 Descending FlightAware
09:03AM 38.3960 114.9270 56° Northeast 475 547 24,600 -420 Descending FlightAware
09:04AM 38.4430 115.0190 57° Northeast 476 548 24,600 -600 Level FlightAware
09:04AM 38.4810 115.0960 58° Northeast 475 547 23,900 -1,680 Descending FlightAware
09:05AM 38.5330 115.1980 57° Northeast 469 540 22,500 -2,040 Descending FlightAware
09:05AM 38.5770 115.2870 58° Northeast 462 532 21,200 -1,380 Descending FlightAware
09:06AM 38.6290 115.3910 57° Northeast 452 520 20,600 -840 Descending FlightAware
09:07AM 38.6720 115.4780 58° Northeast 444 511 20,000 -900 Descending FlightAware
09:08AM 38.7270 115.5890 58° Northeast 438 504 19,300 -900 Descending FlightAware
09:08AM 38.7740 115.6830 57° Northeast 437 503 18,700 -480 Descending FlightAware
09:09AM 38.8080 115.7540 58° Northeast 439 505 18,700 -600 Level FlightAware
09:10AM 38.8510 115.8400 57° Northeast 432 497 18,000 -1,020 Descending FlightAware
09:10AM 38.8960 115.9330 58° Northeast 417 480 17,300 -1,020 Descending FlightAware
09:11AM 38.9130 115.9670 57° Northeast 412 474 17,000 -1,020 Descending FlightAware
09:12AM 38.9700 116.0830 58° Northeast 408 470 16,100 -1,020 Descending FlightAware
09:12AM 39.0050 116.1560 58° Northeast 405 466 15,500 -1,080 Descending FlightAware
09:13AM 39.0460 116.2390 58° Northeast 395 455 14,800 -1,020 Descending FlightAware
09:13AM 39.0770 116.3040 58° Northeast 392 451 14,300 -720 Descending FlightAware
09:14AM 39.1340 116.3930 50° Northeast 364 419 13,800 -780 Descending FlightAware
09:15AM 39.1910 116.4090 12° North 337 388 13,200 -1,260 Descending FlightAware
09:15AM 39.2400 116.4110 North 330 380 12,400 -1,560 Descending FlightAware
09:16AM 39.3030 116.4150 North 308 354 11,300 -1,440 Descending FlightAware
09:17AM 39.3700 116.4200 North 287 330 10,200 -1,140 Descending FlightAware
09:18AM 39.4150 116.4600 34° Northeast 283 326 9,600 -1,260 Descending FlightAware
09:18AM 39.4440 116.4940 42° Northeast 285 328 8,700 -1,800 Descending FlightAware
09:19AM 39.4900 116.5410 38° Northeast 281 323 7,400 -1,740 Descending FlightAware
09:19AM 39.5260 116.5670 29° Northeast 278 320 6,500 -1,320 Descending FlightAware
09:20AM 39.5850 116.6040 26° Northeast 268 308 5,600 -1,020 Descending FlightAware
09:21AM 39.6250 116.6320 28° Northeast 263 303 5,000 -1,020 Descending FlightAware
09:21AM 39.6690 116.6630 28° Northeast 256 295 4,300 -780 Descending FlightAware
09:22AM 39.7160 116.6710 North 215 247 3,900 -540 Descending FlightAware
09:23AM 39.7370 116.6680 354° North 204 235 3,700 -420 Descending FlightAware
09:23AM 39.7700 116.6630 353° North 170 196 3,500 -420 Descending FlightAware
09:24AM 39.8070 116.6570 353° North 164 189 3,100 -480 Descending FlightAware
09:25AM 39.8400 116.6520 353° North 173 199 2,800 -420 Descending FlightAware
09:25AM 39.8560 116.6490 352° North 174 200 2,700 -180 Descending FlightAware
09:26AM 39.8730 116.6470 355° North 174 200 2,700 -120 Level FlightAware
09:27AM 39.9260 116.6380 353° North 129 148 2,500 -360 Descending FlightAware
09:28AM 39.9550 116.6340 354° North 122 140 1,900 -480 Descending FlightAware
09:28AM 39.9680 116.6320 353° North 122 140 1,900 -720 Level FlightAware
09:29AM 39.9970 116.6270 352° North 115 132 1,000 -720 Descending FlightAware
09:30AM 40.0090 116.6250 353° North 115 132 1,000  Level FlightAware